Flight Track Log - Related Links

Times and Time Zones

All times are in EDT time to prevent confusion due to time zone crossing. See the RPA3161 flight status page for this flight to view local times or setup timezone preferences in your user account.

Time Position Orientation Groundspeed Altitude Reporting Facility
EDT Latitude Longitude Course Direction KTS MPH feet Rate Location/Type
Sat 01:47:13 PM 44.2672 -73.1736 198° South 283 326 9,500  Level Boston Center
Sat 01:48:13 PM 44.1900 -73.2072 197° South 288 331 10,000 900 Climbing Boston Center
Sat 01:49:00 PM 43.9770 -73.3299 194° South  Level FlightAware Approximate
Sat 01:49:13 PM 44.1067 -73.2006 177° South 293 337 11,300  Level Boston Center
Sat 01:50:00 PM 43.8540 -73.3736 195° South  Level FlightAware Approximate
Sat 01:50:13 PM 44.0111 -73.1703 167° South 312 359 14,500  Level Boston Center
Sat 01:51:00 PM 43.7313 -73.4196 195° South  Level FlightAware Approximate
Sat 01:51:13 PM 43.9175 -73.1406 167° South 327 376 17,000  Level Boston Center
Sat 01:52:00 PM 43.6094 -73.4685 198° South  Level FlightAware Approximate
Sat 01:52:13 PM 43.8194 -73.1394 180° South 346 398 19,100  Level Boston Center
Sat 01:53:13 PM 43.7236 -73.1556 187° South 356 410 21,700 2,150 Climbing Boston Center
Sat 01:54:13 PM 43.6319 -73.1686 186° South 364 419 23,400 1,500 Climbing Boston Center
Sat 01:55:13 PM 43.5233 -73.1903 188° South 381 438 24,700 1,750 Climbing Boston Center
Sat 01:56:13 PM 43.4128 -73.2089 187° South 396 456 26,900 1,850 Climbing Boston Center
Sat 01:57:13 PM 43.2939 -73.2358 189° South 396 456 28,400 1,550 Climbing Boston Center
Sat 01:58:13 PM 43.1833 -73.2544 187° South 401 461 30,000 800 Climbing Boston Center
Sat 01:59:13 PM 43.0683 -73.2728 187° South 407 468 30,000  Level Boston Center
Sat 02:00:13 PM 42.9578 -73.2969 189° South 412 474 30,000  Level Boston Center
Sat 02:01:13 PM 42.8450 -73.3150 187° South 412 474 30,000  Level Boston Center
Sat 02:02:13 PM 42.7325 -73.3361 188° South 412 474 30,000  Level Boston Center
Sat 02:03:13 PM 42.6197 -73.3569 188° South 412 474 30,000  Level Boston Center
Sat 02:04:13 PM 42.5300 -73.3756 189° South 407 468 30,000 -550 Level Boston Center
Sat 02:05:13 PM 42.3964 -73.3958 186° South 412 474 28,900 -1,000 Descending Boston Center
Sat 02:06:13 PM 42.3006 -73.4000 182° South 401 461 28,000 -450 Descending Boston Center
Sat 02:07:13 PM 42.1919 -73.4208 188° South 396 456 28,000  Level Boston Center
Sat 02:08:13 PM 42.0856 -73.4417 188° South 396 456 28,000  Level Boston Center
Sat 02:10:13 PM 41.8550 -73.4864 188° South 396 456 28,000  Level New York Center
Sat 02:11:13 PM 41.7422 -73.5067 188° South 396 456 28,000  Level New York Center
Sat 02:12:14 PM 41.6336 -73.5217 186° South 396 456 28,000  Level New York Center
Sat 02:13:14 PM 41.5414 -73.5400 188° South 391 450 28,000  Level New York Center
Sat 02:14:15 PM 41.4417 -73.6217 212° Southwest 381 438 28,000  Level New York Center
Sat 02:15:12 PM 41.3644 -73.7178 223° Southwest 379 436 28,000  Level New York Center
Sat 02:16:13 PM 41.2869 -73.8111 222° Southwest 384 442 28,000  Level New York Center
Sat 02:17:14 PM 41.2075 -73.9067 222° Southwest 384 442 28,000  Level New York Center
Sat 02:18:15 PM 41.1278 -74.0022 222° Southwest 384 442 28,000  Level New York Center
Sat 02:19:15 PM 41.0522 -74.0950 223° Southwest 384 442 28,000  Level New York Center
Sat 02:20:12 PM 40.9875 -74.1742 223° Southwest 384 442 28,000  Level New York Center
Sat 02:21:13 PM 40.8886 -74.2817 219° Southwest 389 448 28,000  Level New York Center
Sat 02:22:13 PM 40.8108 -74.3764 223° Southwest 389 448 28,000  Level New York Center
Sat 02:23:14 PM 40.7489 -74.4881 234° Southwest 382 440 28,000  Level New York Center
Sat 02:24:15 PM 40.6975 -74.5947 238° Southwest 382 440 28,000  Level New York Center
Sat 02:25:13 PM 40.6278 -74.6947 227° Southwest 387 445 28,000  Level New York Center
Sat 02:26:13 PM 40.5533 -74.7972 226° Southwest 387 445 28,000  Level New York Center
Sat 02:27:15 PM 40.4811 -74.8994 227° Southwest 387 445 28,000  Level New York Center
Sat 02:28:15 PM 40.4089 -74.9986 226° Southwest 387 445 28,000 -407 Level New York Center
Sat 02:29:13 PM 40.3342 -75.1003 226° Southwest 387 445 27,200 -1,424 Descending New York Center
Sat 02:30:13 PM 40.2617 -75.2017 227° Southwest 387 445 25,200 -1,869 Descending New York Center
Sat 02:31:15 PM 40.1936 -75.2953 226° Southwest 381 438 23,400 -1,600 Descending New York Center
Sat 02:32:13 PM 40.1275 -75.3858 226° Southwest 367 422 22,000 -712 Descending New York Center
Sat 02:33:13 PM 40.0636 -75.4739 227° Southwest 353 406 22,000  Level New York Center
Sat 02:34:13 PM 40.0036 -75.5619 228° Southwest 342 394 22,000  Level New York Center
Sat 02:35:13 PM 39.9433 -75.6581 231° Southwest 342 394 22,000  Level New York Center
Sat 02:36:14 PM 39.8856 -75.7486 230° Southwest 342 394 22,000  Level New York Center
Sat 02:37:13 PM 39.8231 -75.8417 229° Southwest 342 394 22,000 -400 Level New York Center
Sat 02:38:14 PM 39.7669 -75.9375 233° Southwest 342 394 21,200 -1,230 Descending New York Center
Sat 02:39:15 PM 39.7067 -76.0247 228° Southwest 337 388 19,500 -1,636 Descending New York Center
Sat 02:40:15 PM 39.6417 -76.1250 230° Southwest 328 377 17,900 -1,775 Descending New York Center
Sat 02:41:37 PM 39.5667 -76.2500 232° Southwest 305 351 15,300 -1,775 Descending Potomac TRACON
Sat 02:42:37 PM 39.5167 -76.3333 232° Southwest 298 343 13,700 -1,600 Descending Potomac TRACON
Sat 02:43:37 PM 39.4500 -76.4167 224° Southwest 301 346 12,100 -887 Descending Potomac TRACON
Sat 02:44:32 PM 39.4000 -76.4667 218° Southwest 293 337 12,000 -52 Descending Potomac TRACON
Sat 02:45:32 PM 39.3333 -76.5333 218° Southwest 296 341 12,000 -50 Level Potomac TRACON
Sat 02:46:32 PM 39.2667 -76.5833 210° Southwest 297 342 11,900 -800 Descending Potomac TRACON
Sat 02:47:32 PM 39.2000 -76.6500 218° Southwest 292 336 10,400 -950 Descending Potomac TRACON
Sat 02:48:32 PM 39.1333 -76.7167 218° Southwest 284 327 10,000 -350 Descending Potomac TRACON
Sat 02:49:32 PM 39.1000 -76.8000 243° Southwest 289 333 9,700 -950 Descending Potomac TRACON
Sat 02:50:32 PM 39.0833 -76.9000 258° West 286 329 8,100 -1,050 Descending Potomac TRACON
Sat 02:51:32 PM 39.0667 -76.9833 256° West 239 275 7,600 -1,100 Descending Potomac TRACON
Sat 02:52:32 PM 39.0500 -77.0667 256° West 228 262 5,900 -1,488 Descending Potomac TRACON
Sat 02:53:33 PM 39.0333 -77.1500 256° West 211 243 4,600 -1,240 Descending Potomac TRACON
Sat 02:54:33 PM 39.0167 -77.1833 237° Southwest 185 213 3,400 -1,200 Descending Potomac TRACON

Login

Don't have an account? Register now (free) for customized features, flight alerts, and more!